Terminal Aerodrome Forecast
Issued by NWS

Home | Current Version | Previous Version | Text Only | Print | Product List | Glossary On
Versions: 1 2 3 4 5 6 7 8 9 10 11 12 13 14
228
FTUS45 KABQ 180546
TAFLVS
TAF
KLVS 180546Z 1806/1906 26025G35KT P6SM SKC
     FM180800 30028G40KT P6SM SCT060
     FM181000 01011KT P6SM SKC
     FM181800 17009KT P6SM SKC=

USA.gov is the U.S. government's official web portal to all federal, state and local government web resources and services.